Time;durP1;ratioP1;P1;durP2;ratioP2;P2;SDS_P1;SDS_P2;PMS_P1;PMS_P2;Temp;Humidity;BMP_temperature;BMP_pressure;BME280_temperature;BME280_humidity;BME280_pressure;Samples;Min_cycle;Max_cycle;Signal;HPM_P1;HPM_P2
2023/05/02 00:02:15;;;;;;;2.83;2.00;;;14.30;83.10;;;13.98;52.26;100946.69;5016013;28;20192;-73
2023/05/02 00:04:48;;;;;;;3.27;2.43;;;14.30;83.80;;;13.92;52.27;100951.94;5015943;28;20246;-73
2023/05/02 00:07:20;;;;;;;4.53;2.10;;;14.30;83.20;;;13.86;52.61;100941.88;5015909;28;20207;-73
2023/05/02 00:09:52;;;;;;;3.83;2.23;;;14.20;84.20;;;13.87;52.49;100957.03;5015319;28;20251;-73
2023/05/02 00:12:23;;;;;;;3.23;2.20;;;14.20;84.20;;;13.86;52.83;100952.66;5015503;28;20644;-73
2023/05/02 00:14:57;;;;;;;3.77;2.30;;;14.20;84.70;;;13.86;52.32;100956.19;5015757;28;20199;-73
2023/05/02 00:17:28;;;;;;;4.87;2.60;;;14.20;84.00;;;13.92;52.84;100960.00;5015690;28;20187;-73
2023/05/02 00:20:03;;;;;;;3.77;2.10;;;14.20;84.10;;;13.83;53.17;100951.16;5015510;28;20238;-73
2023/05/02 00:22:35;;;;;;;4.30;2.33;;;14.20;84.40;;;13.78;52.84;100952.69;5015638;28;20205;-73
2023/05/02 00:25:14;;;;;;;3.87;2.00;;;14.10;84.60;;;13.75;53.89;100953.03;5015553;28;20198;-73
2023/05/02 00:27:49;;;;;;;4.17;2.20;;;14.10;85.50;;;13.68;53.97;100958.28;5015214;28;20752;-73
2023/05/02 00:30:23;;;;;;;2.53;1.93;;;14.00;85.30;;;13.65;54.09;100956.78;5015433;28;20303;-73
2023/05/02 00:32:54;;;;;;;2.80;2.20;;;14.00;85.60;;;13.68;53.52;100955.59;5015033;28;20624;-73
2023/05/02 00:35:26;;;;;;;4.20;2.20;;;14.00;86.00;;;13.65;54.19;100956.78;5015395;28;20195;-73
2023/05/02 00:37:59;;;;;;;3.43;2.30;;;14.00;86.00;;;13.67;53.96;100961.97;5015324;28;20195;-73
2023/05/02 00:40:31;;;;;;;6.37;2.37;;;14.00;85.90;;;13.64;54.65;100963.19;5015128;28;20235;-73
2023/05/02 00:43:02;;;;;;;2.80;2.23;;;14.00;86.30;;;13.53;54.08;100962.72;5015224;28;20196;-73
2023/05/02 00:45:36;;;;;;;2.77;2.03;;;13.90;85.90;;;13.57;54.40;100966.72;5015183;28;20211;-73
2023/05/02 00:48:10;;;;;;;3.17;2.20;;;13.90;86.50;;;13.56;54.95;100971.25;5015099;28;20215;-73
2023/05/02 00:50:44;;;;;;;4.07;2.57;;;13.90;88.50;;;13.53;54.43;100966.25;5014795;28;20223;-73
2023/05/02 00:53:16;;;;;;;4.50;2.40;;;13.90;87.70;;;13.51;55.20;100970.13;5015077;28;20188;-73
2023/05/02 00:55:48;;;;;;;4.40;2.50;;;13.90;88.10;;;13.55;55.18;100969.63;5014983;28;20187;-73
2023/05/02 00:58:21;;;;;;;3.47;2.17;;;13.90;88.30;;;13.50;55.28;100977.34;5014890;28;20192;-73
2023/05/02 01:01:33;;;;;;;4.73;2.50;;;13.90;87.80;;;13.50;55.86;100968.44;5014589;28;20649;-73
2023/05/02 01:04:22;;;;;;;5.53;2.50;;;13.80;88.90;;;13.45;55.07;100974.34;5014527;28;20222;-73
2023/05/02 01:07:20;;;;;;;3.73;2.70;;;13.80;87.90;;;13.43;56.06;100975.53;5014526;28;20203;-73
2023/05/02 01:10:09;;;;;;;3.13;2.20;;;13.80;88.90;;;13.43;56.59;100976.34;5014716;28;20223;-73
2023/05/02 01:12:47;;;;;;;2.97;2.47;;;13.80;89.20;;;13.43;56.49;100976.34;5014406;28;20645;-73
2023/05/02 01:15:23;;;;;;;3.97;2.30;;;13.80;89.10;;;13.34;56.19;100972.03;5014645;28;20191;-73
2023/05/02 01:17:59;;;;;;;3.60;2.57;;;13.70;89.60;;;13.22;55.73;100965.31;5014660;28;20191;-73
2023/05/02 01:20:37;;;;;;;3.80;2.80;;;13.60;89.30;;;13.25;56.97;100967.69;5014469;28;20259;-73
2023/05/02 01:23:21;;;;;;;4.97;3.30;;;13.60;89.80;;;13.16;56.35;100960.63;5013678;28;20202;-73
2023/05/02 01:26:11;;;;;;;4.87;3.47;;;13.60;89.90;;;13.18;56.50;100964.81;5014347;28;20537;-73
2023/05/02 01:28:57;;;;;;;6.60;3.33;;;13.60;90.10;;;13.14;57.84;100970.75;5014206;28;20227;-73
2023/05/02 01:31:35;;;;;;;6.20;3.70;;;13.50;90.40;;;13.13;57.57;100985.19;5013858;28;20668;-73
2023/05/02 01:34:11;;;;;;;5.57;3.50;;;13.50;90.50;;;13.10;57.42;100980.16;5014128;28;20196;-73
2023/05/02 01:36:48;;;;;;;4.63;3.50;;;13.50;90.60;;;13.07;57.73;100973.25;5014136;28;20187;-73
2023/05/02 01:39:25;;;;;;;7.37;4.30;;;13.50;90.50;;;13.04;58.32;100980.81;5014031;28;20281;-73
2023/05/02 01:42:02;;;;;;;6.53;4.17;;;13.40;90.80;;;13.01;57.50;100975.78;5013963;28;20269;-73
2023/05/02 01:44:38;;;;;;;7.03;4.57;;;13.50;90.70;;;12.96;58.04;100978.13;5014025;28;20187;-73
2023/05/02 01:47:13;;;;;;;8.07;5.00;;;13.40;90.90;;;12.94;58.19;100991.75;5013996;28;20236;-73
2023/05/02 01:49:47;;;;;;;7.17;5.50;;;13.40;90.90;;;12.84;58.74;100991.09;5013850;28;20265;-73
2023/05/02 01:52:22;;;;;;;6.67;5.20;;;13.30;91.10;;;12.80;59.12;100996.94;5013860;28;20188;-73
2023/05/02 01:54:57;;;;;;;7.97;6.23;;;13.30;91.40;;;12.76;60.14;100998.28;5013901;28;20195;-73
2023/05/02 01:57:29;;;;;;;7.97;6.03;;;13.20;91.70;;;12.78;59.53;100997.09;5013871;28;20257;-73
2023/05/02 02:00:05;;;;;;;6.90;6.13;;;13.30;91.80;;;12.87;60.12;101003.31;5013748;28;20231;-73
2023/05/02 02:02:39;;;;;;;8.60;6.13;;;13.30;92.00;;;12.84;60.18;101006.34;5013823;28;20187;-73
2023/05/02 02:05:13;;;;;;;11.47;6.80;;;13.30;92.20;;;12.76;61.36;101007.19;5013474;28;20190;-73
2023/05/02 02:07:47;;;;;;;9.17;6.43;;;13.20;92.50;;;12.80;61.18;101005.00;5013722;28;20202;-73
2023/05/02 02:10:19;;;;;;;9.17;7.03;;;13.20;92.50;;;12.75;61.60;101013.56;5013294;28;20614;-73
2023/05/02 02:13:00;;;;;;;10.23;7.03;;;13.20;92.80;;;12.68;62.08;101018.78;5013396;28;20599;-73
2023/05/02 02:15:38;;;;;;;9.43;7.00;;;13.10;93.10;;;12.68;61.50;101018.78;5013379;28;20640;-73
2023/05/02 02:18:20;;;;;;;10.63;7.53;;;13.20;93.20;;;12.64;62.45;101017.41;5013612;28;20198;-73
2023/05/02 02:20:53;;;;;;;11.07;7.40;;;13.10;93.30;;;12.57;62.97;101016.41;5013541;28;20216;-73
2023/05/02 02:23:29;;;;;;;9.03;7.17;;;13.00;94.10;;;12.58;63.14;101012.72;5013326;28;20562;-73
2023/05/02 02:26:04;;;;;;;10.73;8.07;;;13.10;93.90;;;12.53;64.42;101022.28;5013565;28;20200;-73
2023/05/02 02:28:36;;;;;;;10.53;8.20;;;13.00;94.20;;;12.40;64.73;101019.22;5013487;28;20245;-73
2023/05/02 02:31:09;;;;;;;9.77;8.43;;;12.90;94.50;;;12.43;64.58;101026.97;5013536;28;20195;-73
2023/05/02 02:33:41;;;;;;;11.53;9.07;;;12.90;94.70;;;12.39;64.14;101026.47;5014548;28;20273;-73
2023/05/02 02:36:21;;;;;;;12.17;8.97;;;12.90;94.60;;;12.43;64.59;101030.47;5017483;28;20192;-73
2023/05/02 02:39:02;;;;;;;11.07;9.07;;;12.90;94.70;;;12.34;65.38;101039.53;5017344;28;20235;-73
2023/05/02 02:41:41;;;;;;;11.67;9.17;;;12.90;94.90;;;12.46;65.07;101040.06;5017030;28;20218;-73
2023/05/02 02:44:27;;;;;;;11.70;9.90;;;12.90;95.10;;;12.34;65.00;101042.22;5017342;28;20191;-73
2023/05/02 02:47:10;;;;;;;14.87;10.47;;;12.90;95.10;;;12.37;65.44;101046.41;5016943;28;20557;-73
2023/05/02 02:49:51;;;;;;;16.90;11.03;;;12.90;95.10;;;12.37;65.48;101039.19;5017111;28;20227;-73
2023/05/02 02:52:33;;;;;;;15.17;12.30;;;12.80;95.50;;;12.35;66.27;101043.06;5016827;28;20184;-73
2023/05/02 02:55:17;;;;;;;18.17;12.87;;;12.80;95.70;;;12.32;66.42;101044.22;5017131;28;20200;-73
2023/05/02 02:57:59;;;;;;;17.10;14.63;;;12.80;95.80;;;12.41;67.06;101047.75;5017002;28;20203;-73
2023/05/02 03:00:32;;;;;;;20.43;14.93;;;12.80;96.00;;;12.40;66.83;101046.91;5016895;28;20234;-73
2023/05/02 03:03:06;;;;;;;16.20;14.10;;;12.80;96.20;;;12.40;67.23;101057.66;5016932;28;20188;-73
2023/05/02 03:05:38;;;;;;;20.00;15.40;;;12.90;96.20;;;12.25;67.98;101062.00;5016927;28;20295;-72
2023/05/02 03:08:10;;;;;;;19.87;16.27;;;12.70;96.30;;;12.32;67.43;101054.13;5016572;28;20612;-72
2023/05/02 03:10:42;;;;;;;20.07;15.13;;;12.80;96.60;;;12.28;67.67;101068.88;5016763;28;20195;-73
2023/05/02 03:13:14;;;;;;;20.13;15.17;;;12.80;96.70;;;12.23;67.95;101066.69;5016419;28;20199;-73
2023/05/02 03:16:29;;;;;;;20.63;17.40;;;12.70;96.60;;;12.02;69.75;101075.16;5016390;28;20192;-72
2023/05/02 03:19:02;;;;;;;22.50;17.67;;;12.50;97.30;;;11.98;70.07;101067.59;5016498;28;20619;-72
2023/05/02 03:21:35;;;;;;;21.87;17.07;;;12.50;97.50;;;12.06;70.08;101070.31;5016522;28;20216;-72
2023/05/02 03:24:07;;;;;;;20.57;16.90;;;12.60;97.50;;;12.08;69.71;101071.00;5016593;28;20238;-72
2023/05/02 03:26:39;;;;;;;21.50;17.90;;;12.60;97.50;;;12.06;69.95;101092.63;5016496;28;20196;-72
2023/05/02 03:29:11;;;;;;;23.07;18.23;;;12.50;97.50;;;12.05;69.89;101085.59;5016359;28;20235;-73
2023/05/02 03:31:43;;;;;;;21.33;17.77;;;12.50;97.70;;;11.95;70.64;101092.09;5016256;28;20200;-72
2023/05/02 03:34:16;;;;;;;22.37;18.60;;;12.50;97.70;;;11.93;70.88;101086.84;5016350;28;20210;-72
2023/05/02 03:36:48;;;;;;;21.60;18.10;;;12.50;97.90;;;11.92;70.86;101085.16;5015981;28;20600;-72
2023/05/02 03:39:20;;;;;;;23.17;17.00;;;12.40;98.00;;;11.94;70.84;101083.19;5016195;28;20318;-72
2023/05/02 03:41:52;;;;;;;22.63;18.67;;;12.50;98.10;;;11.71;71.45;101086.59;5016100;28;20211;-73
2023/05/02 03:44:24;;;;;;;21.23;16.70;;;12.30;98.40;;;11.77;70.90;101085.94;5015910;28;20587;-72
2023/05/02 03:46:56;;;;;;;20.20;16.57;;;12.30;98.40;;;11.76;71.25;101086.94;5015441;28;20663;-72
2023/05/02 03:49:29;;;;;;;22.63;16.17;;;12.30;98.50;;;11.75;71.44;101087.97;5016102;28;20254;-73
2023/05/02 03:52:01;;;;;;;21.50;16.73;;;12.30;98.60;;;11.84;71.39;101092.34;5016093;28;20188;-73
2023/05/02 03:54:36;;;;;;;22.43;18.07;;;12.30;98.40;;;11.78;71.95;101090.31;5016034;28;20191;-73
2023/05/02 03:57:07;;;;;;;20.77;16.97;;;12.30;98.60;;;11.86;71.19;101095.72;5015709;28;20196;-72
2023/05/02 03:59:41;;;;;;;21.97;16.40;;;12.40;98.50;;;11.92;71.27;101095.06;5015848;28;20234;-73
2023/05/02 04:02:13;;;;;;;21.07;16.27;;;12.40;98.40;;;11.74;72.38;101099.69;5015543;28;20208;-73
2023/05/02 04:04:46;;;;;;;23.03;17.87;;;12.30;98.60;;;11.71;72.67;101100.00;5015537;28;20195;-73
2023/05/02 04:07:18;;;;;;;23.23;17.80;;;12.30;98.90;;;11.74;72.09;101102.34;5015809;28;20561;-73
2023/05/02 04:09:50;;;;;;;22.70;17.53;;;12.30;98.90;;;11.83;72.08;101104.06;5015658;28;20224;-73
2023/05/02 04:12:22;;;;;;;24.20;17.83;;;12.30;98.70;;;11.75;72.91;101109.41;5015390;28;20188;-73
2023/05/02 04:14:54;;;;;;;22.63;17.23;;;12.30;99.10;;;11.81;72.91;101116.81;5015601;28;20218;-73
2023/05/02 04:17:26;;;;;;;26.90;18.73;;;12.30;99.10;;;11.66;73.65;101121.88;5015561;28;20191;-73
2023/05/02 04:19:59;;;;;;;21.87;17.07;;;12.20;99.50;;;11.73;73.04;101122.97;5015209;28;20656;-73
2023/05/02 04:22:38;;;;;;;20.57;16.60;;;12.30;99.50;;;11.81;72.55;101124.88;5015457;28;20302;-72
2023/05/02 04:25:11;;;;;;;21.17;16.70;;;12.30;99.20;;;11.78;73.24;101130.56;5015496;28;20191;-73
2023/05/02 04:27:43;;;;;;;22.87;17.03;;;12.30;99.40;;;11.76;72.99;101135.22;5015344;28;20196;-73
2023/05/02 04:30:15;;;;;;;21.43;16.97;;;12.30;99.50;;;11.82;72.75;101148.84;5015322;28;20235;-72
2023/05/02 04:32:47;;;;;;;19.77;16.30;;;12.00;99.40;;;11.86;73.29;101144.00;5015018;28;20211;-72
2023/05/02 04:35:21;;;;;;;22.53;16.83;;;12.40;99.70;;;11.71;74.48;101156.31;5015258;28;20294;-73
2023/05/02 04:37:53;;;;;;;20.93;16.87;;;12.20;99.90;;;11.66;75.16;101154.06;5015199;28;20196;-72
2023/05/02 04:40:25;;;;;;;20.70;16.40;;;12.20;99.90;;;11.71;74.41;101157.16;5015137;28;20577;-72
2023/05/02 04:42:57;;;;;;;19.83;15.30;;;12.20;99.90;;;11.69;75.41;101159.97;5015079;28;20223;-73
2023/05/02 04:45:29;;;;;;;21.37;15.70;;;12.20;99.90;;;11.69;75.81;101168.00;5015092;28;20195;-72
2023/05/02 04:48:01;;;;;;;21.87;15.00;;;12.20;99.90;;;11.73;76.09;101173.09;5014835;28;20199;-72
2023/05/02 04:50:34;;;;;;;21.17;14.33;;;12.20;99.90;;;11.69;75.90;101176.06;5014982;28;20227;-72
2023/05/02 04:53:06;;;;;;;21.10;15.63;;;12.20;99.90;;;11.68;76.85;101177.03;5015000;28;20192;-72
2023/05/02 04:55:38;;;;;;;24.03;16.17;;;12.20;99.90;;;11.62;77.59;101188.41;5015005;28;20202;-72
2023/05/02 04:58:10;;;;;;;19.33;15.17;;;12.20;99.90;;;11.64;76.75;101182.91;5014912;28;20195;-72
2023/05/02 05:00:43;;;;;;;19.27;14.90;;;12.10;99.90;;;11.62;77.16;101185.72;5014863;28;20188;-73
2023/05/02 05:03:14;;;;;;;18.80;14.80;;;12.10;99.90;;;11.53;77.75;101189.34;5014713;28;20222;-73
2023/05/02 05:05:47;;;;;;;21.57;16.10;;;12.10;99.90;;;11.43;79.16;101193.97;5014794;28;20196;-72
2023/05/02 05:08:19;;;;;;;19.50;16.00;;;12.00;99.90;;;11.47;78.79;101200.69;5014613;28;20188;-73
2023/05/02 05:10:52;;;;;;;19.23;15.77;;;12.00;99.90;;;11.42;79.44;101205.69;5014617;28;20191;-72
2023/05/02 05:13:24;;;;;;;20.43;15.80;;;12.00;99.90;;;11.43;79.82;101207.38;5014561;28;20188;-72
2023/05/02 05:15:56;;;;;;;22.63;17.57;;;12.00;99.90;;;11.44;79.51;101214.41;5014220;28;20598;-72
2023/05/02 05:18:28;;;;;;;17.87;14.17;;;12.00;99.90;;;11.44;78.93;101218.94;5015245;28;20222;-73
2023/05/02 05:21:01;;;;;;;18.63;13.77;;;12.00;99.90;;;11.44;78.63;101222.44;5014433;28;20196;-73
2023/05/02 05:23:33;;;;;;;17.50;12.00;;;12.00;99.90;;;11.42;78.08;101237.84;5014329;28;20208;-73
2023/05/02 05:26:14;;;;;;;13.47;11.07;;;12.00;99.90;;;11.44;78.07;101235.03;5014396;28;20196;-72
2023/05/02 05:28:45;;;;;;;8.80;7.50;;;12.00;99.90;;;11.39;77.64;101235.47;5014241;28;20227;-73
2023/05/02 05:31:18;;;;;;;8.20;7.20;;;11.90;99.90;;;11.44;77.63;101254.59;5014162;28;20196;-73
2023/05/02 05:33:49;;;;;;;8.53;6.53;;;12.00;99.90;;;11.40;77.55;101257.78;5013814;28;20694;-73
2023/05/02 05:36:23;;;;;;;6.07;5.20;;;11.90;99.90;;;11.28;77.64;101257.16;5014188;28;20195;-72
2023/05/02 05:38:54;;;;;;;6.40;4.60;;;11.80;99.90;;;11.31;77.15;101270.25;5014036;28;20599;-73
2023/05/02 05:41:26;;;;;;;5.13;4.23;;;11.80;99.90;;;11.23;77.15;101278.22;5014105;28;20192;-73
2023/05/02 05:43:58;;;;;;;4.63;3.00;;;11.80;99.90;;;11.00;75.89;101284.97;5013990;28;20211;-72
2023/05/02 05:46:30;;;;;;;3.03;2.37;;;11.50;99.90;;;10.92;75.43;101290.25;5013717;28;20760;-72
2023/05/02 05:49:02;;;;;;;3.83;2.50;;;11.40;99.90;;;10.75;74.65;101302.59;5013941;28;20261;-72
2023/05/02 05:51:35;;;;;;;3.23;2.73;;;11.40;99.90;;;10.74;73.78;101300.91;5014205;28;20191;-72
2023/05/02 05:54:07;;;;;;;4.03;2.40;;;11.30;99.90;;;10.65;73.73;101309.81;5013633;28;20184;-72
2023/05/02 05:56:39;;;;;;;3.63;2.33;;;11.20;99.90;;;10.63;73.60;101320.66;5013884;28;20187;-72
2023/05/02 05:59:11;;;;;;;3.83;2.40;;;11.20;99.90;;;10.46;73.17;101326.78;5014305;28;20234;-73
2023/05/02 06:01:44;;;;;;;3.77;2.47;;;11.10;99.70;;;10.45;73.12;101322.41;5013820;28;20677;-72
2023/05/02 06:04:16;;;;;;;4.57;2.50;;;11.10;99.70;;;10.54;72.92;101332.28;5013683;28;20222;-72
2023/05/02 06:06:52;;;;;;;4.20;2.70;;;11.10;99.70;;;10.58;73.20;101333.63;5013779;28;20599;-72
2023/05/02 06:09:24;;;;;;;3.90;2.23;;;11.10;99.70;;;10.57;73.74;101348.03;5013240;28;20289;-72
2023/05/02 06:11:56;;;;;;;4.27;2.50;;;11.10;99.90;;;10.47;74.74;101341.88;5013385;28;20195;-72
2023/05/02 06:14:28;;;;;;;4.27;2.50;;;11.00;99.90;;;10.45;75.14;101349.19;5013651;28;20196;-72
2023/05/02 06:17:01;;;;;;;4.67;2.57;;;11.00;99.90;;;10.36;74.25;101355.41;5013337;28;20541;-72
2023/05/02 06:19:33;;;;;;;6.67;2.83;;;10.90;99.90;;;10.32;74.07;101363.88;5013564;28;20319;-72
2023/05/02 06:22:06;;;;;;;6.93;2.50;;;10.90;99.90;;;10.37;73.61;101366.97;5013282;28;20537;-72
2023/05/02 06:24:37;;;;;;;5.63;2.80;;;10.90;99.90;;;10.38;73.71;101374.00;5013527;28;20219;-72
2023/05/02 06:27:09;;;;;;;4.90;2.53;;;10.90;99.90;;;10.41;73.85;101368.38;5013570;28;20192;-72
2023/05/02 06:29:41;;;;;;;6.87;2.73;;;10.90;99.90;;;10.34;73.32;101378.81;5013495;28;20231;-73
2023/05/02 06:32:13;;;;;;;7.67;3.60;;;10.90;99.80;;;10.27;73.95;101392.91;5013316;28;20219;-72
2023/05/02 06:34:45;;;;;;;7.93;3.20;;;10.80;99.90;;;10.28;73.36;101397.25;5013491;28;20211;-72
2023/05/02 06:37:18;;;;;;;8.47;3.30;;;10.90;99.80;;;10.29;72.15;101397.13;5013174;28;20591;-72
2023/05/02 06:39:50;;;;;;;11.90;3.83;;;10.90;99.30;;;10.16;71.72;101408.13;5013438;28;20227;-72
2023/05/02 06:42:22;;;;;;;8.17;3.60;;;10.80;99.20;;;10.22;71.89;101420.09;5013389;28;20215;-72
2023/05/02 06:44:55;;;;;;;9.43;3.60;;;10.80;99.10;;;10.27;71.25;101417.84;5013553;28;20227;-72
2023/05/02 06:47:28;;;;;;;8.67;3.77;;;10.80;99.00;;;10.22;71.42;101420.09;5013389;28;20191;-72
2023/05/02 06:50:00;;;;;;;10.80;3.97;;;10.80;98.90;;;10.09;70.82;101428.38;5012984;28;20774;-72
2023/05/02 06:52:33;;;;;;;12.00;4.40;;;10.70;98.60;;;10.21;70.85;101431.75;5013311;28;20192;-72
2023/05/02 06:55:05;;;;;;;20.83;4.63;;;10.80;98.70;;;10.18;70.80;101432.03;5013303;28;20195;-72
2023/05/02 06:57:37;;;;;;;14.47;4.53;;;10.80;98.80;;;10.26;70.63;101439.38;5013292;28;20199;-73
2023/05/02 07:00:09;;;;;;;17.50;4.80;;;10.80;98.60;;;10.31;69.93;101439.81;5013207;28;20285;-73
2023/05/02 07:02:41;;;;;;;18.87;4.80;;;10.90;98.20;;;10.32;69.02;101442.31;5013166;28;20196;-72
2023/05/02 07:05:15;;;;;;;14.73;4.63;;;10.90;97.80;;;10.24;68.61;101447.53;5013290;28;20250;-72
2023/05/02 07:07:48;;;;;;;10.30;4.43;;;10.80;97.60;;;10.31;68.39;101455.88;5012860;28;20537;-72
2023/05/02 07:10:20;;;;;;;18.00;4.80;;;10.90;97.60;;;10.36;68.19;101459.81;5013106;28;20227;-72
2023/05/02 07:12:52;;;;;;;18.10;5.00;;;10.90;97.50;;;10.39;68.01;101462.19;5013185;28;20196;-72
2023/05/02 07:15:24;;;;;;;18.40;5.33;;;11.00;97.40;;;10.30;68.49;101464.88;5013147;28;20246;-72
2023/05/02 07:17:56;;;;;;;15.10;4.67;;;10.90;97.40;;;10.34;67.24;101459.09;5013077;28;20564;-73
2023/05/02 07:20:28;;;;;;;16.43;4.57;;;10.90;97.00;;;10.31;66.70;101467.41;5013613;28;20231;-62
2023/05/02 07:23:01;;;;;;;14.40;4.67;;;10.90;96.60;;;10.22;66.34;101468.25;5016281;28;20198;-74
2023/05/02 07:25:33;;;;;;;15.03;4.63;;;10.90;96.30;;;10.37;66.50;101464.19;5016538;28;20203;-75
2023/05/02 07:28:06;;;;;;;12.57;3.67;;;11.00;96.60;;;10.35;66.21;101468.81;5016257;28;20620;-75
2023/05/02 07:30:38;;;;;;;11.70;4.37;;;10.90;96.30;;;10.41;66.35;101467.41;5016458;28;20241;-75
2023/05/02 07:33:09;;;;;;;16.90;4.57;;;11.00;96.50;;;10.33;66.45;101462.75;5016059;28;20211;-75
2023/05/02 07:35:42;;;;;;;10.73;4.20;;;11.00;96.50;;;10.39;66.55;101469.38;5016167;28;20563;-75
2023/05/02 07:38:16;;;;;;;14.43;4.23;;;11.00;96.40;;;10.45;66.53;101477.69;5016404;28;20192;-75
2023/05/02 07:40:47;;;;;;;17.67;4.80;;;11.00;96.30;;;10.48;65.81;101490.78;5016488;28;20254;-75
2023/05/02 07:43:19;;;;;;;12.77;4.20;;;11.10;96.10;;;10.53;66.10;101485.84;5016036;28;20194;-75
2023/05/02 07:45:51;;;;;;;13.50;4.33;;;11.10;96.20;;;10.39;64.28;101494.31;5016309;28;20191;-75
2023/05/02 07:48:23;;;;;;;10.17;3.67;;;11.00;95.30;;;10.42;64.36;101493.19;5016148;28;20207;-75
2023/05/02 07:51:05;;;;;;;10.30;3.33;;;11.00;95.90;;;10.32;63.49;101495.00;5016116;28;20191;-75
2023/05/02 07:53:38;;;;;;;14.53;4.30;;;11.00;94.80;;;10.47;63.61;101513.22;5015834;28;20566;-75
2023/05/02 07:56:11;;;;;;;11.17;4.40;;;11.00;95.10;;;10.49;62.69;101519.25;5016106;28;20199;-75
2023/05/02 07:58:43;;;;;;;14.37;4.13;;;11.10;94.50;;;10.46;63.58;101510.66;5016159;28;20586;-75
2023/05/02 08:01:15;;;;;;;12.70;4.00;;;11.10;95.00;;;10.57;62.88;101510.53;5016034;28;20271;-75
2023/05/02 08:03:48;;;;;;;14.93;4.20;;;11.10;94.60;;;10.66;64.37;101518.53;5015898;28;20238;-75
2023/05/02 08:06:21;;;;;;;16.93;3.83;;;11.30;95.20;;;10.68;62.74;101519.22;5015903;28;20188;-75
2023/05/02 08:08:55;;;;;;;16.57;4.40;;;11.20;94.60;;;10.69;62.16;101528.13;5015735;28;20235;-75
2023/05/02 08:11:27;;;;;;;11.20;3.83;;;11.30;94.40;;;10.67;62.70;101528.28;5015757;28;20199;-75
2023/05/02 08:13:58;;;;;;;14.70;4.03;;;11.30;94.10;;;10.71;61.88;101528.84;5015717;28;20192;-75
2023/05/02 08:16:30;;;;;;;12.70;3.60;;;11.30;94.00;;;10.74;61.45;101535.75;5015343;28;20635;-75
2023/05/02 08:19:02;;;;;;;13.50;3.70;;;11.30;93.80;;;10.74;61.02;101535.75;5015662;28;20227;-75
2023/05/02 08:21:34;;;;;;;14.23;3.40;;;11.30;93.70;;;10.63;60.55;101553.63;5015697;28;20188;-75
2023/05/02 08:24:08;;;;;;;8.60;3.40;;;11.20;93.30;;;10.57;60.59;101550.69;5015565;28;20598;-75
2023/05/02 08:26:40;;;;;;;11.80;4.03;;;11.20;93.50;;;10.63;60.47;101556.31;5015499;28;20196;-74
2023/05/02 08:29:11;;;;;;;12.17;3.70;;;11.30;93.90;;;10.49;60.36;101570.13;5015158;28;20242;-72
2023/05/02 08:31:44;;;;;;;12.67;3.57;;;11.20;93.20;;;10.68;61.49;101563.94;5014986;28;20192;-72
2023/05/02 08:34:17;;;;;;;11.10;3.87;;;11.20;93.60;;;10.68;60.41;101566.63;5015070;28;20206;-73
2023/05/02 08:36:49;;;;;;;13.70;4.50;;;11.30;93.30;;;10.56;60.24;101575.75;5015247;28;20199;-73
2023/05/02 08:39:22;;;;;;;12.00;3.23;;;11.10;92.90;;;10.62;60.29;101573.38;5015232;28;20235;-73
2023/05/02 08:41:57;;;;;;;6.90;3.07;;;11.20;93.10;;;10.65;60.84;101574.94;5015301;28;20218;-73
2023/05/02 08:44:28;;;;;;;10.77;2.87;;;11.20;93.20;;;10.74;60.39;101578.59;5015236;28;20224;-73
2023/05/02 08:47:05;;;;;;;9.53;3.13;;;11.30;93.10;;;10.72;59.42;101591.28;5015252;28;20610;-73
2023/05/02 08:49:40;;;;;;;7.93;2.83;;;11.30;92.70;;;10.71;58.96;101592.25;5015117;28;20230;-73
2023/05/02 08:52:14;;;;;;;8.07;2.57;;;11.30;92.30;;;10.73;58.47;101598.31;5014836;28;20199;-73
2023/05/02 08:54:50;;;;;;;6.10;2.70;;;11.30;92.20;;;10.76;58.39;101601.56;5015035;28;20187;-73
2023/05/02 08:57:25;;;;;;;8.53;4.03;;;11.30;92.00;;;10.80;59.30;101602.13;5014722;28;20655;-67
2023/05/02 08:59:57;;;;;;;9.53;2.60;;;11.40;92.30;;;10.79;58.62;101613.84;5014567;28;20643;-73
2023/05/02 09:02:45;;;;;;;9.57;2.87;;;11.30;91.90;;;10.77;58.71;101621.16;5014928;28;20195;-73
2023/05/02 09:05:25;;;;;;;10.63;2.97;;;11.30;91.90;;;10.80;58.06;101627.09;5014820;28;20286;-73
2023/05/02 09:07:57;;;;;;;8.10;2.57;;;11.40;92.10;;;10.84;58.49;101625.81;5014836;28;20203;-73
2023/05/02 09:10:35;;;;;;;6.40;2.23;;;11.40;92.10;;;10.85;57.38;101640.06;5014718;28;20234;-73
2023/05/02 09:13:37;;;;;;;6.90;2.67;;;11.40;91.30;;;10.89;58.21;101636.13;5014469;28;20644;-73
2023/05/02 09:16:11;;;;;;;7.20;2.80;;;11.40;91.80;;;10.91;57.58;101637.66;5014702;28;20198;-73
2023/05/02 09:18:47;;;;;;;7.13;2.70;;;11.50;91.50;;;10.88;57.82;101645.13;5014583;28;20237;-73
2023/05/02 09:21:21;;;;;;;8.07;2.70;;;11.40;91.90;;;10.90;56.79;101653.88;5014253;28;20648;-73
2023/05/02 09:23:54;;;;;;;10.20;2.67;;;11.40;91.30;;;10.76;57.47;101657.81;5014159;28;20202;-73
2023/05/02 09:26:31;;;;;;;4.23;2.27;;;11.30;91.20;;;10.85;57.86;101674.91;5014486;28;20191;-73
2023/05/02 09:29:04;;;;;;;8.70;3.03;;;11.40;91.80;;;10.91;57.05;101668.97;5014457;28;20230;-73
2023/05/02 09:31:40;;;;;;;6.07;2.60;;;11.40;91.00;;;10.57;56.58;101664.00;5014239;28;20215;-73
2023/05/02 09:34:26;;;;;;;9.40;2.87;;;11.20;90.60;;;10.65;56.80;101682.88;5014413;28;20196;-73
2023/05/02 09:36:58;;;;;;;10.53;3.03;;;11.20;91.10;;;10.58;56.96;101676.38;5014316;28;20191;-73
2023/05/02 09:39:32;;;;;;;9.27;3.33;;;11.20;90.90;;;10.59;57.18;101674.56;5014219;28;20223;-73
2023/05/02 09:42:05;;;;;;;7.77;2.83;;;11.20;91.20;;;10.59;56.22;101683.44;5013935;28;20208;-73
2023/05/02 09:44:43;;;;;;;12.23;3.47;;;11.20;90.70;;;10.62;56.51;101693.88;5013563;28;20212;-73
2023/05/02 09:47:25;;;;;;;7.63;2.67;;;11.20;90.90;;;10.69;55.75;101688.81;5014172;28;20519;-73
2023/05/02 09:49:58;;;;;;;7.27;2.63;;;11.30;90.30;;;10.72;56.36;101690.38;5014087;28;20227;-73
2023/05/02 09:52:30;;;;;;;5.83;2.80;;;11.30;90.60;;;10.80;55.98;101695.88;5014109;28;20191;-73
2023/05/02 09:55:19;;;;;;;11.40;3.00;;;11.40;90.60;;;10.69;54.98;101689.66;5014037;28;20188;-73
2023/05/02 09:57:53;;;;;;;7.10;3.17;;;11.30;89.40;;;10.86;56.64;101695.31;5013705;28;20566;-72
2023/05/02 10:00:37;;;;;;;10.83;3.17;;;11.40;90.50;;;10.95;54.76;101694.50;5013845;28;20237;-73
2023/05/02 10:03:15;;;;;;;5.63;2.97;;;11.50;89.90;;;11.06;55.50;101691.69;5013981;28;20207;-73
2023/05/02 10:05:49;;;;;;;8.33;3.03;;;11.60;90.20;;;11.05;54.37;101692.69;5013801;28;20234;-73
2023/05/02 10:08:24;;;;;;;9.43;2.73;;;11.70;89.00;;;11.19;54.87;101698.47;5013511;28;20723;-73
2023/05/02 10:10:59;;;;;;;10.53;4.57;;;11.80;90.00;;;11.30;54.91;101705.50;5013613;28;20651;-72
2023/05/02 10:13:34;;;;;;;9.40;2.87;;;11.80;89.70;;;11.33;53.70;101705.25;5013659;28;20644;-72
2023/05/02 10:16:11;;;;;;;8.83;3.23;;;11.90;88.40;;;11.45;54.62;101704.09;5013524;28;20646;-72
2023/05/02 10:18:54;;;;;;;5.93;2.63;;;12.00;89.50;;;11.41;52.47;101708.03;5013744;28;20227;-73
2023/05/02 10:21:30;;;;;;;5.20;2.43;;;12.00;86.50;;;11.37;52.80;101709.31;5013828;28;20191;-73
2023/05/02 10:24:03;;;;;;;4.83;2.30;;;11.90;87.00;;;11.37;52.55;101714.66;5013821;28;20198;-72
2023/05/02 10:26:36;;;;;;;4.67;2.50;;;11.90;86.70;;;11.42;51.90;101715.09;5013623;28;20215;-72
2023/05/02 10:29:11;;;;;;;7.17;3.00;;;11.90;86.50;;;11.37;52.37;101722.72;5013694;28;20230;-73
2023/05/02 10:31:44;;;;;;;5.07;3.00;;;12.00;87.00;;;11.38;52.75;101715.53;5013359;28;20640;-73
2023/05/02 10:34:18;;;;;;;7.10;2.63;;;11.90;86.40;;;11.32;52.11;101721.47;5013391;28;20637;-72
2023/05/02 10:36:50;;;;;;;6.30;2.67;;;11.90;85.00;;;11.35;52.69;101727.38;5013609;28;20184;-73
2023/05/02 10:39:24;;;;;;;10.00;3.37;;;11.90;85.80;;;11.39;51.76;101722.59;5013532;28;20227;-73